Time;durP1;ratioP1;P1;durP2;ratioP2;P2;SDS_P1;SDS_P2;PMS_P1;PMS_P2;Temp;Humidity;BMP_temperature;BMP_pressure;BME280_temperature;BME280_humidity;BME280_pressure;Samples;Min_cycle;Max_cycle;Signal;HPM_P1;HPM_P2
2023/08/16 00:00:43;;;;;;;34.38;19.95;;;;;;;;;;4995791;28;20049;-81
2023/08/16 00:03:10;;;;;;;34.90;19.52;;;;;;;;;;5011012;28;20073;-82
2023/08/16 00:05:40;;;;;;;31.88;20.23;;;;;;;;;;5005804;28;20113;-80
2023/08/16 00:08:06;;;;;;;30.00;18.17;;;;;;;;;;5012448;28;20510;-80
2023/08/16 00:10:33;;;;;;;27.20;17.85;;;;;;;;;;5006636;28;20434;-80
2023/08/16 00:13:00;;;;;;;30.50;18.42;;;;;;;;;;5005299;28;20054;-80
2023/08/16 00:15:27;;;;;;;28.77;18.13;;;;;;;;;;5011882;28;20050;-81
2023/08/16 00:17:54;;;;;;;26.35;17.75;;;;;;;;;;5002378;28;20045;-81
2023/08/16 00:20:21;;;;;;;38.53;20.85;;;;;;;;;;4998064;28;20073;-80
2023/08/16 00:22:49;;;;;;;31.40;20.90;;;;;;;;;;5007704;28;20553;-80
2023/08/16 00:25:16;;;;;;;32.58;21.65;;;;;;;;;;4989956;28;20494;-81
2023/08/16 00:27:42;;;;;;;30.60;20.77;;;;;;;;;;4998775;28;20042;-84
2023/08/16 00:30:10;;;;;;;29.70;20.33;;;;;;;;;;5003039;28;20129;-83
2023/08/16 00:32:37;;;;;;;29.92;19.15;;;;;;;;;;4993437;28;20131;-83
2023/08/16 00:35:05;;;;;;;30.45;19.83;;;;;;;;;;5011898;28;20050;-83
2023/08/16 00:37:31;;;;;;;31.02;18.42;;;;;;;;;;5003077;28;20038;-81
2023/08/16 00:39:58;;;;;;;29.05;17.80;;;;;;;;;;5006733;28;20559;-80
2023/08/16 00:42:24;;;;;;;23.27;15.82;;;;;;;;;;5003920;28;20042;-80
2023/08/16 00:44:51;;;;;;;21.05;14.68;;;;;;;;;;4999401;28;20050;-81
2023/08/16 00:47:18;;;;;;;27.20;16.80;;;;;;;;;;4990126;28;20074;-81
2023/08/16 00:49:44;;;;;;;23.23;15.10;;;;;;;;;;4991672;28;20105;-79
2023/08/16 00:52:11;;;;;;;27.30;16.80;;;;;;;;;;5003545;28;20076;-80
2023/08/16 00:54:38;;;;;;;24.08;14.90;;;;;;;;;;5003099;28;20047;-83
2023/08/16 00:57:05;;;;;;;19.60;13.27;;;;;;;;;;4999886;28;20518;-82
2023/08/16 00:59:32;;;;;;;22.67;14.32;;;;;;;;;;5006672;28;20104;-79
2023/08/16 01:01:59;;;;;;;22.52;13.93;;;;;;;;;;5000909;28;20153;-80
2023/08/16 01:04:25;;;;;;;19.10;13.93;;;;;;;;;;5006495;28;20049;-81
2023/08/16 01:06:57;;;;;;;21.70;14.25;;;;;;;;;;5004557;28;20038;-81
2023/08/16 01:09:25;;;;;;;25.70;14.20;;;;;;;;;;5008959;28;21043;-81
2023/08/16 01:12:10;;;;;;;24.92;13.32;;;;;;;;;;5005570;28;20053;-79
2023/08/16 01:14:45;;;;;;;33.50;17.70;;;;;;;;;;4992060;28;21056;-81
2023/08/16 01:17:12;;;;;;;25.90;17.57;;;;;;;;;;4998917;28;20309;-80
2023/08/16 01:19:40;;;;;;;29.85;18.63;;;;;;;;;;5003646;28;20477;-81
2023/08/16 01:22:22;;;;;;;36.00;19.95;;;;;;;;;;4997798;28;20521;-79
2023/08/16 01:24:52;;;;;;;32.65;18.77;;;;;;;;;;5000914;28;20046;-81
2023/08/16 01:27:21;;;;;;;26.45;17.38;;;;;;;;;;5004487;28;20578;-79
2023/08/16 01:29:49;;;;;;;26.13;18.23;;;;;;;;;;5002412;28;20047;-79
2023/08/16 01:32:16;;;;;;;31.42;19.77;;;;;;;;;;4998392;28;20050;-81
2023/08/16 01:34:42;;;;;;;27.63;17.95;;;;;;;;;;5010239;28;20390;-80
2023/08/16 01:37:09;;;;;;;31.02;17.40;;;;;;;;;;5005693;28;20061;-79
2023/08/16 01:39:38;;;;;;;29.70;18.48;;;;;;;;;;5006724;28;20076;-80
2023/08/16 01:42:06;;;;;;;29.60;17.45;;;;;;;;;;4999068;28;20121;-80
2023/08/16 01:44:32;;;;;;;26.70;16.17;;;;;;;;;;4993375;28;20043;-81
2023/08/16 01:46:59;;;;;;;27.45;16.40;;;;;;;;;;4997628;28;20897;-81
2023/08/16 01:49:26;;;;;;;26.00;16.13;;;;;;;;;;5010409;28;20045;-81
2023/08/16 01:51:53;;;;;;;32.03;18.50;;;;;;;;;;4981995;28;20855;-79
2023/08/16 01:54:20;;;;;;;26.33;16.70;;;;;;;;;;4997747;28;20053;-82
2023/08/16 01:56:47;;;;;;;33.20;18.20;;;;;;;;;;4999597;28;20785;-79
2023/08/16 01:59:13;;;;;;;30.20;17.50;;;;;;;;;;4996090;28;20066;-80
2023/08/16 02:01:40;;;;;;;25.42;16.70;;;;;;;;;;5015124;28;20050;-82
2023/08/16 02:04:07;;;;;;;28.65;16.35;;;;;;;;;;4998211;28;20050;-80
2023/08/16 02:06:33;;;;;;;31.05;17.88;;;;;;;;;;5009197;28;20106;-78
2023/08/16 02:09:04;;;;;;;30.38;18.35;;;;;;;;;;5011216;28;20046;-80
2023/08/16 02:11:31;;;;;;;26.35;17.33;;;;;;;;;;5002340;28;20066;-81
2023/08/16 02:13:58;;;;;;;28.15;17.83;;;;;;;;;;4997154;28;20050;-79
2023/08/16 02:16:29;;;;;;;29.13;17.30;;;;;;;;;;4996029;28;20117;-79
2023/08/16 02:18:56;;;;;;;26.13;16.65;;;;;;;;;;5013046;28;20046;-78
2023/08/16 02:21:22;;;;;;;30.83;17.98;;;;;;;;;;5001362;28;20096;-82
2023/08/16 02:23:49;;;;;;;31.55;18.00;;;;;;;;;;5009132;28;20046;-80
2023/08/16 02:26:16;;;;;;;35.92;18.52;;;;;;;;;;5005419;28;20053;-80
2023/08/16 02:28:43;;;;;;;34.30;18.60;;;;;;;;;;4999564;28;20518;-81
2023/08/16 02:31:10;;;;;;;32.38;18.33;;;;;;;;;;5004942;28;20531;-79
2023/08/16 02:33:37;;;;;;;35.58;17.92;;;;;;;;;;5019417;28;20062;-80
2023/08/16 02:36:04;;;;;;;34.63;17.50;;;;;;;;;;5006274;28;20061;-81
2023/08/16 02:38:31;;;;;;;32.33;17.73;;;;;;;;;;5005391;28;20058;-79
2023/08/16 02:40:59;;;;;;;33.15;18.45;;;;;;;;;;4983568;28;21257;-79
2023/08/16 02:43:28;;;;;;;30.10;17.35;;;;;;;;;;5004075;28;20651;-79
2023/08/16 02:45:55;;;;;;;32.15;17.70;;;;;;;;;;5004489;28;20046;-80
2023/08/16 02:48:22;;;;;;;28.52;16.27;;;;;;;;;;5009659;28;20141;-79
2023/08/16 02:50:49;;;;;;;30.70;17.13;;;;;;;;;;4978447;28;20035;-84
2023/08/16 02:53:16;;;;;;;33.15;17.75;;;;;;;;;;5010066;28;20042;-81
2023/08/16 02:55:43;;;;;;;32.47;16.10;;;;;;;;;;5011109;28;20080;-82
2023/08/16 02:58:12;;;;;;;26.70;15.73;;;;;;;;;;5006173;28;20041;-81
2023/08/16 03:00:38;;;;;;;30.80;17.83;;;;;;;;;;5003421;28;20061;-80
2023/08/16 03:03:08;;;;;;;31.85;16.92;;;;;;;;;;5022245;28;20056;-80
2023/08/16 03:05:37;;;;;;;28.10;16.30;;;;;;;;;;5003366;28;20049;-82
2023/08/16 03:08:04;;;;;;;30.42;17.70;;;;;;;;;;5002090;28;20049;-81
2023/08/16 03:10:31;;;;;;;30.52;16.83;;;;;;;;;;4996716;28;20108;-80
2023/08/16 03:12:57;;;;;;;27.05;16.42;;;;;;;;;;5012766;28;20124;-82
2023/08/16 03:15:24;;;;;;;29.42;17.17;;;;;;;;;;4995348;28;20077;-81
2023/08/16 03:17:51;;;;;;;30.65;17.38;;;;;;;;;;4994712;28;20125;-81
2023/08/16 03:20:17;;;;;;;27.60;16.63;;;;;;;;;;5000939;28;20513;-81
2023/08/16 03:22:44;;;;;;;32.17;17.65;;;;;;;;;;5009221;28;20035;-81
2023/08/16 03:25:13;;;;;;;33.38;18.65;;;;;;;;;;5012466;28;20041;-82
2023/08/16 03:27:43;;;;;;;30.60;18.20;;;;;;;;;;5004583;28;20050;-81
2023/08/16 03:30:10;;;;;;;31.70;18.25;;;;;;;;;;5003589;28;20049;-81
2023/08/16 03:32:39;;;;;;;30.50;17.83;;;;;;;;;;5006003;28;20042;-82
2023/08/16 03:35:06;;;;;;;28.13;17.08;;;;;;;;;;5030338;28;20517;-82
2023/08/16 03:37:36;;;;;;;34.28;18.67;;;;;;;;;;5022505;28;20096;-81
2023/08/16 03:40:05;;;;;;;30.55;17.58;;;;;;;;;;5014692;28;20054;-79
2023/08/16 03:42:32;;;;;;;28.27;16.80;;;;;;;;;;5003223;28;20058;-82
2023/08/16 03:44:59;;;;;;;33.58;17.33;;;;;;;;;;5015393;28;20065;-82
2023/08/16 03:47:26;;;;;;;26.88;16.15;;;;;;;;;;4997842;28;20043;-79
2023/08/16 03:49:53;;;;;;;32.63;17.70;;;;;;;;;;5010080;28;20153;-81
2023/08/16 03:52:20;;;;;;;34.83;18.02;;;;;;;;;;5011876;28;20056;-82
2023/08/16 03:54:48;;;;;;;32.53;17.83;;;;;;;;;;5009560;28;20111;-82
2023/08/16 03:57:15;;;;;;;31.38;18.17;;;;;;;;;;4994820;28;20076;-83
2023/08/16 03:59:41;;;;;;;40.47;19.48;;;;;;;;;;4997058;28;20077;-82
2023/08/16 04:02:08;;;;;;;31.60;17.23;;;;;;;;;;5009540;28;20529;-82
2023/08/16 04:04:35;;;;;;;31.00;16.55;;;;;;;;;;4992799;28;20131;-77
2023/08/16 04:07:02;;;;;;;34.28;17.33;;;;;;;;;;4999761;28;20085;-77
2023/08/16 04:09:28;;;;;;;35.92;17.73;;;;;;;;;;4994971;28;20132;-77
2023/08/16 04:11:55;;;;;;;35.22;17.42;;;;;;;;;;5001137;28;20514;-78
2023/08/16 04:14:22;;;;;;;38.17;18.05;;;;;;;;;;4999997;28;20506;-77
2023/08/16 04:16:49;;;;;;;35.72;17.10;;;;;;;;;;5005909;28;20132;-80
2023/08/16 04:19:16;;;;;;;35.80;17.17;;;;;;;;;;5005304;28;20045;-78
2023/08/16 04:21:42;;;;;;;38.97;17.63;;;;;;;;;;4999653;28;20520;-78
2023/08/16 04:24:09;;;;;;;36.25;17.08;;;;;;;;;;5004141;28;20399;-77
2023/08/16 04:26:36;;;;;;;35.90;17.08;;;;;;;;;;5007189;28;20645;-80
2023/08/16 04:29:04;;;;;;;35.50;17.10;;;;;;;;;;5003395;28;20073;-77
2023/08/16 04:31:30;;;;;;;31.77;15.52;;;;;;;;;;5012455;28;20099;-78
2023/08/16 04:33:57;;;;;;;30.13;15.38;;;;;;;;;;5005523;28;20042;-78
2023/08/16 04:36:25;;;;;;;28.33;14.73;;;;;;;;;;5004051;28;20578;-78
2023/08/16 04:38:51;;;;;;;30.20;15.02;;;;;;;;;;4988473;28;20506;-78
2023/08/16 04:41:21;;;;;;;30.20;14.18;;;;;;;;;;4989754;28;20148;-79
2023/08/16 04:43:48;;;;;;;33.88;15.35;;;;;;;;;;4995861;28;20049;-77
2023/08/16 04:46:14;;;;;;;29.60;13.75;;;;;;;;;;5004907;28;20068;-79
2023/08/16 04:48:41;;;;;;;35.47;14.25;;;;;;;;;;4995791;28;20252;-79
2023/08/16 04:51:08;;;;;;;31.30;14.50;;;;;;;;;;5014348;28;20064;-77
2023/08/16 04:53:34;;;;;;;32.70;14.15;;;;;;;;;;5013108;28;20038;-79
2023/08/16 04:56:01;;;;;;;33.13;14.80;;;;;;;;;;5004416;28;20065;-78
2023/08/16 04:58:29;;;;;;;30.70;14.38;;;;;;;;;;4984912;28;20092;-79
2023/08/16 05:00:56;;;;;;;29.73;14.05;;;;;;;;;;4999216;28;20068;-79
2023/08/16 05:03:23;;;;;;;26.30;13.15;;;;;;;;;;5001225;28;20077;-79
2023/08/16 05:05:55;;;;;;;26.75;12.80;;;;;;;;;;5007331;28;20279;-80
2023/08/16 05:08:21;;;;;;;23.63;13.55;;;;;;;;;;5007462;28;20068;-78
2023/08/16 05:10:48;;;;;;;22.42;11.98;;;;;;;;;;5003775;28;20109;-79
2023/08/16 05:13:17;;;;;;;21.17;12.00;;;;;;;;;;4998880;28;20124;-78
2023/08/16 05:15:44;;;;;;;22.60;11.85;;;;;;;;;;5009677;28;21030;-79
2023/08/16 05:18:14;;;;;;;24.30;13.10;;;;;;;;;;5004400;28;20045;-79
2023/08/16 05:20:41;;;;;;;24.55;13.57;;;;;;;;;;5005406;28;20065;-79
2023/08/16 05:23:08;;;;;;;21.52;12.45;;;;;;;;;;5011476;28;20045;-79
2023/08/16 05:25:37;;;;;;;19.83;11.10;;;;;;;;;;5002068;28;20053;-79
2023/08/16 05:28:04;;;;;;;25.63;13.60;;;;;;;;;;4986118;28;20452;-78
2023/08/16 05:30:31;;;;;;;21.95;12.18;;;;;;;;;;4996668;28;20047;-80
2023/08/16 05:32:58;;;;;;;25.63;12.85;;;;;;;;;;5002087;28;20050;-79
2023/08/16 05:35:24;;;;;;;21.10;11.95;;;;;;;;;;5004227;28;20058;-79
2023/08/16 05:37:51;;;;;;;20.00;11.32;;;;;;;;;;5001785;28;20438;-78
2023/08/16 05:40:18;;;;;;;21.27;12.25;;;;;;;;;;4996301;28;20060;-79
2023/08/16 05:42:44;;;;;;;23.55;12.63;;;;;;;;;;4995658;28;20042;-78
2023/08/16 05:45:11;;;;;;;20.40;11.70;;;;;;;;;;5001117;28;20030;-80
2023/08/16 05:47:38;;;;;;;22.52;12.48;;;;;;;;;;5013452;28;20097;-80
2023/08/16 05:50:07;;;;;;;21.15;12.13;;;;;;;;;;5011779;28;20072;-80
2023/08/16 05:52:34;;;;;;;22.52;12.13;;;;;;;;;;5001018;28;20045;-80
2023/08/16 05:55:00;;;;;;;23.40;11.70;;;;;;;;;;5001735;28;20045;-78
2023/08/16 05:57:27;;;;;;;24.92;12.60;;;;;;;;;;4998382;28;20081;-80
2023/08/16 05:59:54;;;;;;;26.48;12.27;;;;;;;;;;4998465;28;20083;-79
2023/08/16 06:02:23;;;;;;;26.00;13.50;;;;;;;;;;4993955;28;20110;-78
2023/08/16 06:04:52;;;;;;;26.48;13.13;;;;;;;;;;5002165;28;20042;-78
2023/08/16 06:07:23;;;;;;;22.92;12.80;;;;;;;;;;4990319;28;20054;-78
2023/08/16 06:09:50;;;;;;;26.23;13.85;;;;;;;;;;4970487;28;20073;-80
2023/08/16 06:12:17;;;;;;;23.13;12.32;;;;;;;;;;4992939;28;20507;-78
2023/08/16 06:14:44;;;;;;;26.05;13.10;;;;;;;;;;4995256;28;20081;-81
2023/08/16 06:17:11;;;;;;;27.50;12.60;;;;;;;;;;5001441;28;20149;-79
2023/08/16 06:19:37;;;;;;;27.55;12.85;;;;;;;;;;4999056;28;20046;-79
2023/08/16 06:22:04;;;;;;;25.58;12.15;;;;;;;;;;4998798;28;20136;-79
2023/08/16 06:24:33;;;;;;;19.88;11.02;;;;;;;;;;4999714;28;20505;-79
2023/08/16 06:27:00;;;;;;;27.45;11.65;;;;;;;;;;5001893;28;20182;-79
2023/08/16 06:29:26;;;;;;;22.65;9.68;;;;;;;;;;5004945;28;20050;-79
2023/08/16 06:31:55;;;;;;;15.23;8.82;;;;;;;;;;5004291;28;20056;-79
2023/08/16 06:34:22;;;;;;;16.92;9.27;;;;;;;;;;5007917;28;20050;-79
2023/08/16 06:36:48;;;;;;;15.35;8.73;;;;;;;;;;4990023;28;20046;-79
2023/08/16 06:39:15;;;;;;;14.50;8.75;;;;;;;;;;5005424;28;20038;-78
2023/08/16 06:41:42;;;;;;;15.90;9.02;;;;;;;;;;5001072;28;20038;-79
2023/08/16 06:44:09;;;;;;;14.82;8.70;;;;;;;;;;5006294;28;20042;-78
2023/08/16 06:46:36;;;;;;;14.40;8.98;;;;;;;;;;5001337;28;20038;-78
2023/08/16 06:49:03;;;;;;;19.35;8.95;;;;;;;;;;5004301;28;20533;-79
2023/08/16 06:51:30;;;;;;;15.18;7.90;;;;;;;;;;5010683;28;20452;-79
2023/08/16 06:53:56;;;;;;;14.60;8.30;;;;;;;;;;5012377;28;20046;-79
2023/08/16 06:56:23;;;;;;;13.57;8.35;;;;;;;;;;5002875;28;20045;-79
2023/08/16 06:58:50;;;;;;;12.30;7.90;;;;;;;;;;5005753;28;20289;-79
2023/08/16 07:01:17;;;;;;;16.20;8.60;;;;;;;;;;4998100;28;20039;-79
2023/08/16 07:03:43;;;;;;;14.77;8.57;;;;;;;;;;5003636;28;20042;-79
2023/08/16 07:06:10;;;;;;;15.35;8.85;;;;;;;;;;5001395;28;20042;-80
2023/08/16 07:08:37;;;;;;;14.18;8.73;;;;;;;;;;5005435;28;20142;-80
2023/08/16 07:11:03;;;;;;;13.02;8.75;;;;;;;;;;5009189;28;20493;-80
2023/08/16 07:13:30;;;;;;;13.50;8.35;;;;;;;;;;5004546;28;20045;-79
2023/08/16 07:15:57;;;;;;;16.80;8.30;;;;;;;;;;4995776;28;21487;-79
2023/08/16 07:18:24;;;;;;;12.90;8.18;;;;;;;;;;4986035;28;20053;-79
2023/08/16 07:20:51;;;;;;;13.35;8.07;;;;;;;;;;4994994;28;20050;-79
2023/08/16 07:23:17;;;;;;;12.38;8.20;;;;;;;;;;5004626;28;20078;-79
2023/08/16 07:25:44;;;;;;;18.45;8.15;;;;;;;;;;4997888;28;20054;-79
2023/08/16 07:28:11;;;;;;;12.73;8.10;;;;;;;;;;5002727;28;20045;-78
2023/08/16 07:30:37;;;;;;;15.10;8.05;;;;;;;;;;5001160;28;20046;-79
2023/08/16 07:33:04;;;;;;;12.27;7.57;;;;;;;;;;5000042;28;20046;-78
2023/08/16 07:35:31;;;;;;;13.38;8.20;;;;;;;;;;5001552;28;20065;-79
2023/08/16 07:37:59;;;;;;;12.30;7.53;;;;;;;;;;5004241;28;20100;-78
2023/08/16 07:40:26;;;;;;;14.50;7.88;;;;;;;;;;4999931;28;20080;-79
2023/08/16 07:42:53;;;;;;;13.57;6.90;;;;;;;;;;4987595;28;20082;-78
2023/08/16 07:45:20;;;;;;;12.25;6.70;;;;;;;;;;5011582;28;20304;-79
2023/08/16 07:47:47;;;;;;;12.88;7.38;;;;;;;;;;5011571;28;20477;-80
2023/08/16 07:50:13;;;;;;;12.48;7.75;;;;;;;;;;5000812;28;20049;-80
2023/08/16 07:52:40;;;;;;;11.68;7.18;;;;;;;;;;5016348;28;20038;-79
2023/08/16 07:55:08;;;;;;;10.88;6.88;;;;;;;;;;5013427;28;20081;-78
2023/08/16 07:57:37;;;;;;;11.15;6.32;;;;;;;;;;5012921;28;20051;-80
2023/08/16 08:00:11;;;;;;;11.23;6.63;;;;;;;;;;5003099;28;20088;-79
2023/08/16 08:02:41;;;;;;;11.05;6.60;;;;;;;;;;4995362;28;20045;-79
2023/08/16 08:05:23;;;;;;;11.65;6.18;;;;;;;;;;5005027;28;20050;-80
2023/08/16 08:07:51;;;;;;;13.18;6.65;;;;;;;;;;5008055;28;20037;-80
2023/08/16 08:10:18;;;;;;;13.20;6.72;;;;;;;;;;5001542;28;20080;-80
2023/08/16 08:12:45;;;;;;;8.77;5.70;;;;;;;;;;4994646;28;20057;-79
2023/08/16 08:15:12;;;;;;;10.73;5.95;;;;;;;;;;5008257;28;20062;-79
2023/08/16 08:17:39;;;;;;;7.97;5.22;;;;;;;;;;4999707;28;20053;-79
2023/08/16 08:20:07;;;;;;;8.35;4.82;;;;;;;;;;4994016;28;20048;-80
2023/08/16 08:22:34;;;;;;;7.25;4.93;;;;;;;;;;4998256;28;20831;-79
2023/08/16 08:25:01;;;;;;;7.63;4.80;;;;;;;;;;4996058;28;20685;-79
2023/08/16 08:27:27;;;;;;;7.60;5.10;;;;;;;;;;4995224;28;20126;-80
2023/08/16 08:29:55;;;;;;;7.65;5.25;;;;;;;;;;4993179;28;20054;-79
2023/08/16 08:32:22;;;;;;;6.57;4.55;;;;;;;;;;4997493;28;20052;-78
2023/08/16 08:34:49;;;;;;;7.85;4.80;;;;;;;;;;5001159;28;20045;-80
2023/08/16 08:37:15;;;;;;;7.18;4.30;;;;;;;;;;5002902;28;20510;-79
2023/08/16 08:39:42;;;;;;;5.88;3.95;;;;;;;;;;5007071;28;20050;-80
2023/08/16 08:42:09;;;;;;;7.78;4.47;;;;;;;;;;4994825;28;20061;-80
2023/08/16 08:44:36;;;;;;;9.15;5.45;;;;;;;;;;4993812;28;20389;-79
2023/08/16 08:47:05;;;;;;;8.43;4.60;;;;;;;;;;4994348;28;20054;-79
2023/08/16 08:49:41;;;;;;;8.45;4.55;;;;;;;;;;4988057;28;20054;-79
2023/08/16 08:52:08;;;;;;;5.20;4.03;;;;;;;;;;5002932;28;20546;-78
2023/08/16 08:54:35;;;;;;;8.27;4.72;;;;;;;;;;4997681;28;20078;-80
2023/08/16 08:57:05;;;;;;;6.85;3.92;;;;;;;;;;4993684;28;20050;-79
2023/08/16 08:59:33;;;;;;;7.13;4.45;;;;;;;;;;5006904;28;20057;-79
2023/08/16 09:02:00;;;;;;;6.28;4.13;;;;;;;;;;4998161;28;20120;-79
2023/08/16 09:04:29;;;;;;;9.45;5.35;;;;;;;;;;5006915;28;20056;-79
2023/08/16 09:06:56;;;;;;;11.90;5.63;;;;;;;;;;5003835;28;20058;-80
2023/08/16 09:09:23;;;;;;;10.52;5.32;;;;;;;;;;5002552;28;20062;-80
2023/08/16 09:11:49;;;;;;;9.48;5.63;;;;;;;;;;5003111;28;20107;-79
2023/08/16 09:14:16;;;;;;;8.10;5.10;;;;;;;;;;5006315;28;20038;-80
2023/08/16 09:16:43;;;;;;;9.73;4.95;;;;;;;;;;4977571;28;20062;-79
2023/08/16 09:19:13;;;;;;;8.07;4.40;;;;;;;;;;5009673;28;20033;-80
2023/08/16 09:21:41;;;;;;;8.50;4.50;;;;;;;;;;5005831;28;20038;-79
2023/08/16 09:24:08;;;;;;;8.88;5.05;;;;;;;;;;5012328;28;20060;-80
2023/08/16 09:26:35;;;;;;;8.45;4.35;;;;;;;;;;5005328;28;20037;-79
2023/08/16 09:29:03;;;;;;;6.28;4.22;;;;;;;;;;5010862;28;20062;-80
2023/08/16 09:31:37;;;;;;;8.43;4.70;;;;;;;;;;5003357;28;20049;-79
2023/08/16 09:34:05;;;;;;;7.68;4.63;;;;;;;;;;5008883;28;20049;-79
2023/08/16 09:36:33;;;;;;;8.35;5.65;;;;;;;;;;4992096;28;20077;-79
2023/08/16 09:39:08;;;;;;;11.30;6.15;;;;;;;;;;5001986;28;20662;-80
2023/08/16 09:41:38;;;;;;;7.38;5.28;;;;;;;;;;4994804;28;20038;-79
2023/08/16 09:44:06;;;;;;;8.32;4.75;;;;;;;;;;5004423;28;20042;-78
2023/08/16 09:46:38;;;;;;;8.25;5.47;;;;;;;;;;4980968;28;20043;-79
2023/08/16 09:49:25;;;;;;;8.52;5.47;;;;;;;;;;5000377;28;20050;-80
2023/08/16 09:51:52;;;;;;;7.95;5.05;;;;;;;;;;5000391;28;20118;-80
2023/08/16 09:54:22;;;;;;;9.00;5.70;;;;;;;;;;5004158;28;20050;-79
2023/08/16 09:56:49;;;;;;;9.75;6.00;;;;;;;;;;4996996;28;20080;-80
2023/08/16 09:59:19;;;;;;;10.63;5.53;;;;;;;;;;4997471;28;20058;-79
2023/08/16 10:01:49;;;;;;;8.68;5.00;;;;;;;;;;4996913;28;20043;-81
2023/08/16 10:04:20;;;;;;;7.40;5.20;;;;;;;;;;5006287;28;20423;-77
2023/08/16 10:07:08;;;;;;;7.68;5.43;;;;;;;;;;5001721;28;20053;-79
2023/08/16 10:09:40;;;;;;;8.25;5.22;;;;;;;;;;4993677;28;20121;-79
2023/08/16 10:12:08;;;;;;;6.82;4.47;;;;;;;;;;5015844;28;20050;-79
2023/08/16 10:14:37;;;;;;;10.80;5.55;;;;;;;;;;4999783;28;20304;-80
2023/08/16 10:17:08;;;;;;;7.35;4.68;;;;;;;;;;5011399;28;20049;-80
2023/08/16 10:19:39;;;;;;;8.30;5.53;;;;;;;;;;4997734;28;20046;-79
2023/08/16 10:22:15;;;;;;;7.03;4.85;;;;;;;;;;5003420;28;20069;-80
2023/08/16 10:24:59;;;;;;;8.88;5.50;;;;;;;;;;5007837;28;20149;-78
2023/08/16 10:27:26;;;;;;;8.60;5.32;;;;;;;;;;5010514;28;20509;-79
2023/08/16 10:29:57;;;;;;;8.63;5.30;;;;;;;;;;5007978;28;20050;-79
2023/08/16 10:32:24;;;;;;;9.43;6.15;;;;;;;;;;5007866;28;20046;-79
2023/08/16 10:34:55;;;;;;;7.70;5.05;;;;;;;;;;5008496;28;20042;-78
2023/08/16 10:37:22;;;;;;;8.73;5.30;;;;;;;;;;5013896;28;20042;-79
2023/08/16 10:39:51;;;;;;;13.05;5.60;;;;;;;;;;5008353;28;20061;-80
2023/08/16 10:42:24;;;;;;;8.52;5.53;;;;;;;;;;5003662;28;20050;-77
2023/08/16 10:44:52;;;;;;;12.52;5.97;;;;;;;;;;5002499;28;20452;-78
2023/08/16 10:47:28;;;;;;;8.18;5.32;;;;;;;;;;5002197;28;20065;-79
2023/08/16 10:49:55;;;;;;;9.35;5.85;;;;;;;;;;4984954;28;20422;-79
2023/08/16 10:52:28;;;;;;;12.00;6.13;;;;;;;;;;5004660;28;20089;-77
2023/08/16 10:54:55;;;;;;;7.93;5.25;;;;;;;;;;5006077;28;20526;-79
2023/08/16 10:57:25;;;;;;;10.48;6.00;;;;;;;;;;5008920;28;20058;-79
2023/08/16 11:00:05;;;;;;;10.00;6.13;;;;;;;;;;5009609;28;20065;-80
2023/08/16 11:02:34;;;;;;;12.32;6.70;;;;;;;;;;5005469;28;20393;-80
2023/08/16 11:05:01;;;;;;;9.63;6.53;;;;;;;;;;5005690;28;20038;-78
2023/08/16 11:07:28;;;;;;;9.23;5.72;;;;;;;;;;5004449;28;20042;-79
2023/08/16 11:10:01;;;;;;;9.88;6.70;;;;;;;;;;4998495;28;20108;-79
2023/08/16 11:12:28;;;;;;;8.00;5.82;;;;;;;;;;4998601;28;20046;-78
2023/08/16 11:14:55;;;;;;;7.90;5.80;;;;;;;;;;5002448;28;20042;-80
2023/08/16 11:17:23;;;;;;;9.82;6.28;;;;;;;;;;5005133;28;20038;-79
2023/08/16 11:19:51;;;;;;;9.02;6.22;;;;;;;;;;4998987;28;20039;-79
2023/08/16 11:22:18;;;;;;;11.23;6.50;;;;;;;;;;4999002;28;20233;-79
2023/08/16 11:24:46;;;;;;;11.18;5.82;;;;;;;;;;4997194;28;20053;-79
2023/08/16 11:27:18;;;;;;;11.45;6.45;;;;;;;;;;5000660;28;20103;-80
2023/08/16 11:29:48;;;;;;;9.43;6.35;;;;;;;;;;4998562;28;20141;-79
2023/08/16 11:32:16;;;;;;;9.68;5.95;;;;;;;;;;5004337;28;20042;-80
2023/08/16 11:34:43;;;;;;;9.57;6.38;;;;;;;;;;5003713;28;20050;-79
2023/08/16 11:37:16;;;;;;;10.05;6.20;;;;;;;;;;5002753;28;20137;-77
2023/08/16 11:39:43;;;;;;;11.07;7.10;;;;;;;;;;5004939;28;20046;-79
2023/08/16 11:42:10;;;;;;;10.50;6.80;;;;;;;;;;5006991;28;20042;-78
2023/08/16 11:44:37;;;;;;;10.85;6.60;;;;;;;;;;5018693;28;20054;-79
2023/08/16 11:47:08;;;;;;;11.07;6.47;;;;;;;;;;5005990;28;20049;-80
2023/08/16 11:49:36;;;;;;;8.48;5.78;;;;;;;;;;5003637;28;20049;-79
2023/08/16 11:52:02;;;;;;;10.93;6.45;;;;;;;;;;5005252;28;20054;-77
2023/08/16 11:54:29;;;;;;;10.43;6.28;;;;;;;;;;5001559;28;20050;-80
2023/08/16 11:56:56;;;;;;;9.20;5.85;;;;;;;;;;4994987;28;20506;-78
2023/08/16 11:59:26;;;;;;;8.90;5.75;;;;;;;;;;4997148;28;20058;-78
2023/08/16 12:01:55;;;;;;;8.20;5.50;;;;;;;;;;5002032;28;20042;-79
2023/08/16 12:04:22;;;;;;;8.63;5.60;;;;;;;;;;5003240;28;20054;-80
2023/08/16 12:06:49;;;;;;;9.23;5.35;;;;;;;;;;4999979;28;20045;-80
2023/08/16 12:09:16;;;;;;;9.27;6.22;;;;;;;;;;5005892;28;20045;-79
2023/08/16 12:11:43;;;;;;;10.13;6.40;;;;;;;;;;5003477;28;20042;-79
2023/08/16 12:14:10;;;;;;;9.07;5.55;;;;;;;;;;5004255;28;20049;-78
2023/08/16 12:16:36;;;;;;;7.72;4.97;;;;;;;;;;5002303;28;20118;-80
2023/08/16 12:19:04;;;;;;;8.75;5.78;;;;;;;;;;5001062;28;20054;-77
2023/08/16 12:21:30;;;;;;;9.95;5.47;;;;;;;;;;4999691;28;20054;-78
2023/08/16 12:23:57;;;;;;;9.25;5.70;;;;;;;;;;5009143;28;20158;-79
2023/08/16 12:26:24;;;;;;;9.65;6.07;;;;;;;;;;4994641;28;21505;-77
2023/08/16 12:28:50;;;;;;;8.25;5.22;;;;;;;;;;5004212;28;20088;-79
2023/08/16 12:31:17;;;;;;;8.88;5.43;;;;;;;;;;5004325;28;20037;-79
2023/08/16 12:33:44;;;;;;;7.88;5.50;;;;;;;;;;5017758;28;20046;-78
2023/08/16 12:36:12;;;;;;;7.82;5.50;;;;;;;;;;5004150;28;20158;-79
2023/08/16 12:38:40;;;;;;;8.77;5.57;;;;;;;;;;5009841;28;20042;-79
2023/08/16 12:41:07;;;;;;;8.95;5.57;;;;;;;;;;5014989;28;20065;-77
2023/08/16 12:43:34;;;;;;;10.43;5.93;;;;;;;;;;5000312;28;20047;-78
2023/08/16 12:46:07;;;;;;;10.25;5.72;;;;;;;;;;4985132;28;20061;-78
2023/08/16 12:48:34;;;;;;;10.32;6.00;;;;;;;;;;5004753;28;20415;-78
2023/08/16 12:51:01;;;;;;;11.25;6.05;;;;;;;;;;5002676;28;20049;-79
2023/08/16 12:53:30;;;;;;;9.82;6.05;;;;;;;;;;5004523;28;20054;-79
2023/08/16 12:55:58;;;;;;;11.63;6.43;;;;;;;;;;4994655;28;20104;-79
2023/08/16 12:58:25;;;;;;;9.10;5.70;;;;;;;;;;4998615;28;20074;-79
2023/08/16 13:01:00;;;;;;;10.55;6.18;;;;;;;;;;5004613;28;20061;-79
2023/08/16 13:03:32;;;;;;;9.73;6.43;;;;;;;;;;4979329;28;20054;-78
2023/08/16 13:06:01;;;;;;;11.45;6.03;;;;;;;;;;5001675;28;20046;-79
2023/08/16 13:08:30;;;;;;;8.85;5.47;;;;;;;;;;5004194;28;20128;-78
2023/08/16 13:10:57;;;;;;;10.02;5.30;;;;;;;;;;4995950;28;20050;-80
2023/08/16 13:13:35;;;;;;;10.27;5.60;;;;;;;;;;4999108;28;20095;-79
2023/08/16 13:16:03;;;;;;;9.38;5.82;;;;;;;;;;4994550;28;20050;-80
2023/08/16 13:18:33;;;;;;;10.27;5.93;;;;;;;;;;4998100;28;20042;-80
2023/08/16 13:21:03;;;;;;;11.55;5.72;;;;;;;;;;5006563;28;20050;-80
2023/08/16 13:23:46;;;;;;;8.93;5.55;;;;;;;;;;5006499;28;20107;-79
2023/08/16 13:26:32;;;;;;;8.20;5.18;;;;;;;;;;5003008;28;20512;-79
2023/08/16 13:29:05;;;;;;;8.35;5.40;;;;;;;;;;5003179;28;20353;-79
2023/08/16 13:31:35;;;;;;;9.40;6.13;;;;;;;;;;5007576;28;20047;-79
2023/08/16 13:34:13;;;;;;;8.80;5.57;;;;;;;;;;5003732;28;21269;-78
2023/08/16 13:36:42;;;;;;;8.07;5.25;;;;;;;;;;5006804;28;20133;-79
2023/08/16 13:39:09;;;;;;;6.90;5.30;;;;;;;;;;5009084;28;20046;-79
2023/08/16 13:41:54;;;;;;;10.98;5.60;;;;;;;;;;5008110;28;20052;-79
2023/08/16 13:44:27;;;;;;;9.57;6.00;;;;;;;;;;5006775;28;20723;-79
2023/08/16 13:47:14;;;;;;;8.13;5.20;;;;;;;;;;5003919;28;20188;-78
2023/08/16 13:49:40;;;;;;;9.88;5.60;;;;;;;;;;5011755;28;20055;-80
2023/08/16 13:52:07;;;;;;;7.50;5.22;;;;;;;;;;5004554;28;20455;-79
2023/08/16 13:54:34;;;;;;;8.27;5.50;;;;;;;;;;5004382;28;20092;-80
2023/08/16 13:57:00;;;;;;;7.75;5.25;;;;;;;;;;5002032;28;20045;-80
2023/08/16 13:59:27;;;;;;;8.90;5.45;;;;;;;;;;5005459;28;20064;-78
2023/08/16 14:01:53;;;;;;;9.50;5.60;;;;;;;;;;5003015;28;20038;-77
2023/08/16 14:04:20;;;;;;;9.63;5.65;;;;;;;;;;4998268;28;20081;-79
2023/08/16 14:06:47;;;;;;;7.85;5.22;;;;;;;;;;5012003;28;20061;-78
2023/08/16 14:09:14;;;;;;;7.60;5.10;;;;;;;;;;5012819;28;20049;-79
2023/08/16 14:11:41;;;;;;;8.57;5.35;;;;;;;;;;5009839;28;21366;-78
2023/08/16 14:14:07;;;;;;;6.72;4.65;;;;;;;;;;4994904;28;20042;-79
2023/08/16 14:16:34;;;;;;;10.15;4.43;;;;;;;;;;4976278;28;20118;-78
2023/08/16 14:19:04;;;;;;;8.75;4.60;;;;;;;;;;5003883;28;20050;-79
2023/08/16 14:21:31;;;;;;;9.65;4.25;;;;;;;;;;5005458;28;20050;-78
2023/08/16 14:23:57;;;;;;;8.05;4.07;;;;;;;;;;5001938;28;20046;-78
2023/08/16 14:26:24;;;;;;;6.28;4.18;;;;;;;;;;5015049;28;20109;-79
2023/08/16 14:28:51;;;;;;;8.77;4.78;;;;;;;;;;5014658;28;20572;-77
2023/08/16 14:31:18;;;;;;;8.13;4.45;;;;;;;;;;4999649;28;20045;-79
2023/08/16 14:33:44;;;;;;;13.15;5.05;;;;;;;;;;5009366;28;20042;-81